sensor_id;sensor_type;location;lat;lon;timestamp;pressure;altitude;pressure_sealevel;temperature;humidity
8320;BME280;4197;42.130;24.746;2022-09-01T00:02:29;99187.72;;;19.27;100.00
8320;BME280;4197;42.130;24.746;2022-09-01T00:04:58;99186.94;;;19.27;100.00
8320;BME280;4197;42.130;24.746;2022-09-01T00:07:27;99182.63;;;19.26;100.00
8320;BME280;4197;42.130;24.746;2022-09-01T00:09:59;99168.06;;;19.29;100.00
8320;BME280;4197;42.130;24.746;2022-09-01T00:12:27;99162.25;;;19.23;100.00
8320;BME280;4197;42.130;24.746;2022-09-01T00:14:56;99164.66;;;19.21;100.00
8320;BME280;4197;42.130;24.746;2022-09-01T00:17:25;99166.09;;;19.29;100.00
8320;BME280;4197;42.130;24.746;2022-09-01T00:19:54;99167.63;;;19.30;100.00
8320;BME280;4197;42.130;24.746;2022-09-01T00:22:22;99179.09;;;19.25;100.00
8320;BME280;4197;42.130;24.746;2022-09-01T00:24:50;99163.88;;;19.21;100.00
8320;BME280;4197;42.130;24.746;2022-09-01T00:27:20;99174.63;;;19.11;100.00
8320;BME280;4197;42.130;24.746;2022-09-01T00:29:56;99179.16;;;18.98;100.00
8320;BME280;4197;42.130;24.746;2022-09-01T00:32:25;99180.13;;;18.88;100.00
8320;BME280;4197;42.130;24.746;2022-09-01T00:34:53;99187.59;;;18.87;100.00
8320;BME280;4197;42.130;24.746;2022-09-01T00:37:22;99183.19;;;18.90;100.00
8320;BME280;4197;42.130;24.746;2022-09-01T00:39:51;99178.81;;;18.96;100.00
8320;BME280;4197;42.130;24.746;2022-09-01T00:42:21;99190.03;;;19.05;100.00
8320;BME280;4197;42.130;24.746;2022-09-01T00:44:49;99188.53;;;19.01;100.00
8320;BME280;4197;42.130;24.746;2022-09-01T00:47:17;99178.56;;;19.10;100.00
8320;BME280;4197;42.130;24.746;2022-09-01T00:49:48;99175.38;;;19.12;100.00
8320;BME280;4197;42.130;24.746;2022-09-01T00:52:21;99172.94;;;19.17;100.00
8320;BME280;4197;42.130;24.746;2022-09-01T00:54:53;99177.34;;;19.15;100.00
8320;BME280;4197;42.130;24.746;2022-09-01T00:57:26;99173.75;;;19.18;100.00
8320;BME280;4197;42.130;24.746;2022-09-01T00:59:58;99170.44;;;19.27;100.00
8320;BME280;4197;42.130;24.746;2022-09-01T01:02:28;99180.31;;;19.24;100.00
8320;BME280;4197;42.130;24.746;2022-09-01T01:04:56;99170.16;;;19.21;100.00
8320;BME280;4197;42.130;24.746;2022-09-01T01:07:26;99186.66;;;19.21;100.00
8320;BME280;4197;42.130;24.746;2022-09-01T01:09:55;99192.19;;;19.17;100.00
8320;BME280;4197;42.130;24.746;2022-09-01T01:12:25;99194.28;;;19.10;100.00
8320;BME280;4197;42.130;24.746;2022-09-01T01:14:56;99183.47;;;18.99;100.00
8320;BME280;4197;42.130;24.746;2022-09-01T01:17:24;99185.53;;;18.91;100.00
8320;BME280;4197;42.130;24.746;2022-09-01T01:19:54;99183.72;;;18.81;100.00
8320;BME280;4197;42.130;24.746;2022-09-01T01:22:45;99182.31;;;18.69;100.00
8320;BME280;4197;42.130;24.746;2022-09-01T01:25:36;99176.47;;;18.67;100.00
8320;BME280;4197;42.130;24.746;2022-09-01T01:28:09;99175.69;;;18.67;100.00
8320;BME280;4197;42.130;24.746;2022-09-01T01:30:40;99178.88;;;18.62;100.00
8320;BME280;4197;42.130;24.746;2022-09-01T01:33:08;99173.47;;;18.58;100.00
8320;BME280;4197;42.130;24.746;2022-09-01T01:35:37;99175.38;;;18.61;100.00
8320;BME280;4197;42.130;24.746;2022-09-01T01:38:05;99178.13;;;18.61;100.00
8320;BME280;4197;42.130;24.746;2022-09-01T01:40:37;99171.84;;;18.61;100.00
8320;BME280;4197;42.130;24.746;2022-09-01T01:43:05;99179.78;;;18.55;100.00
8320;BME280;4197;42.130;24.746;2022-09-01T01:45:33;99176.66;;;18.53;100.00
8320;BME280;4197;42.130;24.746;2022-09-01T01:48:02;99182.22;;;18.49;100.00
8320;BME280;4197;42.130;24.746;2022-09-01T01:50:36;99182.22;;;18.49;100.00
8320;BME280;4197;42.130;24.746;2022-09-01T01:53:06;99177.56;;;18.46;100.00
8320;BME280;4197;42.130;24.746;2022-09-01T01:55:39;99183.41;;;18.48;100.00
8320;BME280;4197;42.130;24.746;2022-09-01T01:58:07;99182.38;;;18.39;100.00
8320;BME280;4197;42.130;24.746;2022-09-01T02:00:38;99187.16;;;18.31;100.00
8320;BME280;4197;42.130;24.746;2022-09-01T02:03:08;99180.59;;;18.25;100.00
8320;BME280;4197;42.130;24.746;2022-09-01T02:05:38;99180.25;;;18.19;100.00
8320;BME280;4197;42.130;24.746;2022-09-01T02:08:08;99179.53;;;18.15;100.00
8320;BME280;4197;42.130;24.746;2022-09-01T02:10:40;99185.69;;;18.23;100.00
8320;BME280;4197;42.130;24.746;2022-09-01T02:13:11;99178.59;;;18.29;100.00
8320;BME280;4197;42.130;24.746;2022-09-01T02:15:44;99186.53;;;18.20;100.00
8320;BME280;4197;42.130;24.746;2022-09-01T02:18:16;99184.47;;;18.27;100.00
8320;BME280;4197;42.130;24.746;2022-09-01T02:20:47;99186.06;;;18.25;100.00
8320;BME280;4197;42.130;24.746;2022-09-01T02:23:16;99187.59;;;18.30;100.00
8320;BME280;4197;42.130;24.746;2022-09-01T02:25:53;99190.28;;;18.33;100.00
8320;BME280;4197;42.130;24.746;2022-09-01T02:28:42;99204.25;;;18.46;100.00
8320;BME280;4197;42.130;24.746;2022-09-01T02:31:22;99192.13;;;18.43;100.00
8320;BME280;4197;42.130;24.746;2022-09-01T02:33:50;99197.91;;;18.49;100.00
8320;BME280;4197;42.130;24.746;2022-09-01T02:36:21;99197.03;;;18.56;100.00
8320;BME280;4197;42.130;24.746;2022-09-01T02:38:52;99188.59;;;18.43;100.00
8320;BME280;4197;42.130;24.746;2022-09-01T02:41:24;99190.91;;;18.44;100.00
8320;BME280;4197;42.130;24.746;2022-09-01T02:43:55;99183.03;;;18.46;100.00
8320;BME280;4197;42.130;24.746;2022-09-01T02:46:25;99184.19;;;18.49;100.00
8320;BME280;4197;42.130;24.746;2022-09-01T02:48:55;99179.16;;;18.44;100.00
8320;BME280;4197;42.130;24.746;2022-09-01T02:51:26;99186.16;;;18.48;100.00
8320;BME280;4197;42.130;24.746;2022-09-01T02:53:54;99192.13;;;18.40;100.00
8320;BME280;4197;42.130;24.746;2022-09-01T02:56:25;99198.50;;;18.33;100.00
8320;BME280;4197;42.130;24.746;2022-09-01T02:58:54;99197.69;;;18.36;100.00
8320;BME280;4197;42.130;24.746;2022-09-01T03:01:24;99204.31;;;18.39;100.00
8320;BME280;4197;42.130;24.746;2022-09-01T03:03:56;99189.56;;;18.29;100.00
8320;BME280;4197;42.130;24.746;2022-09-01T03:06:25;99184.97;;;18.19;100.00
8320;BME280;4197;42.130;24.746;2022-09-01T03:08:56;99186.47;;;18.23;100.00
8320;BME280;4197;42.130;24.746;2022-09-01T03:11:28;99180.19;;;18.26;100.00
8320;BME280;4197;42.130;24.746;2022-09-01T03:13:57;99180.25;;;18.19;100.00
8320;BME280;4197;42.130;24.746;2022-09-01T03:16:26;99183.41;;;18.18;100.00
8320;BME280;4197;42.130;24.746;2022-09-01T03:18:56;99187.47;;;18.10;100.00
8320;BME280;4197;42.130;24.746;2022-09-01T03:21:25;99189.72;;;18.15;100.00
8320;BME280;4197;42.130;24.746;2022-09-01T03:23:53;99201.81;;;18.21;100.00
8320;BME280;4197;42.130;24.746;2022-09-01T03:26:24;99187.41;;;18.13;100.00
8320;BME280;4197;42.130;24.746;2022-09-01T03:28:54;99189.91;;;18.00;100.00
8320;BME280;4197;42.130;24.746;2022-09-01T03:31:23;99188.44;;;17.92;100.00
8320;BME280;4197;42.130;24.746;2022-09-01T03:33:57;99200.28;;;17.86;100.00
8320;BME280;4197;42.130;24.746;2022-09-01T03:36:27;99199.06;;;17.87;100.00
8320;BME280;4197;42.130;24.746;2022-09-01T03:38:58;99201.88;;;17.83;100.00
8320;BME280;4197;42.130;24.746;2022-09-01T03:41:28;99205.00;;;17.81;100.00
8320;BME280;4197;42.130;24.746;2022-09-01T03:43:58;99204.94;;;17.89;100.00
8320;BME280;4197;42.130;24.746;2022-09-01T03:46:28;99204.97;;;17.85;100.00
8320;BME280;4197;42.130;24.746;2022-09-01T03:49:03;99190.34;;;17.95;100.00
8320;BME280;4197;42.130;24.746;2022-09-01T03:51:33;99194.69;;;17.93;100.00
8320;BME280;4197;42.130;24.746;2022-09-01T03:54:05;99186.47;;;17.93;100.00
8320;BME280;4197;42.130;24.746;2022-09-01T03:56:34;99199.72;;;17.98;100.00
8320;BME280;4197;42.130;24.746;2022-09-01T03:59:08;99198.94;;;17.97;100.00
8320;BME280;4197;42.130;24.746;2022-09-01T04:01:43;99196.47;;;18.06;100.00
8320;BME280;4197;42.130;24.746;2022-09-01T04:04:13;99194.88;;;18.13;100.00
8320;BME280;4197;42.130;24.746;2022-09-01T04:06:43;99205.09;;;18.09;100.00
8320;BME280;4197;42.130;24.746;2022-09-01T04:09:11;99196.09;;;18.08;100.00
8320;BME280;4197;42.130;24.746;2022-09-01T04:11:40;99200.38;;;18.09;100.00
8320;BME280;4197;42.130;24.746;2022-09-01T04:14:13;99202.72;;;18.11;100.00
8320;BME280;4197;42.130;24.746;2022-09-01T04:16:55;99203.91;;;18.10;100.00
8320;BME280;4197;42.130;24.746;2022-09-01T04:19:57;99199.84;;;18.21;100.00
8320;BME280;4197;42.130;24.746;2022-09-01T04:22:25;99199.09;;;18.17;100.00
8320;BME280;4197;42.130;24.746;2022-09-01T04:24:55;99198.44;;;18.10;100.00
8320;BME280;4197;42.130;24.746;2022-09-01T04:27:26;99196.81;;;18.12;100.00
8320;BME280;4197;42.130;24.746;2022-09-01T04:29:56;99202.13;;;18.26;100.00
8320;BME280;4197;42.130;24.746;2022-09-01T04:32:24;99193.41;;;18.35;100.00
8320;BME280;4197;42.130;24.746;2022-09-01T04:34:53;99195.06;;;18.56;100.00
8320;BME280;4197;42.130;24.746;2022-09-01T04:37:22;99190.34;;;18.57;100.00
8320;BME280;4197;42.130;24.746;2022-09-01T04:39:51;99196.00;;;18.73;100.00
8320;BME280;4197;42.130;24.746;2022-09-01T04:42:24;99198.91;;;18.89;100.00
8320;BME280;4197;42.130;24.746;2022-09-01T04:44:53;99208.06;;;19.06;100.00
8320;BME280;4197;42.130;24.746;2022-09-01T04:47:25;99200.13;;;19.12;100.00
8320;BME280;4197;42.130;24.746;2022-09-01T04:50:03;99206.75;;;19.14;100.00
8320;BME280;4197;42.130;24.746;2022-09-01T04:52:40;99209.50;;;19.14;100.00
8320;BME280;4197;42.130;24.746;2022-09-01T04:55:10;99206.56;;;19.29;100.00
8320;BME280;4197;42.130;24.746;2022-09-01T04:57:44;99208.19;;;19.23;100.00
8320;BME280;4197;42.130;24.746;2022-09-01T05:00:17;99207.78;;;19.24;100.00
8320;BME280;4197;42.130;24.746;2022-09-01T05:02:52;99213.03;;;19.38;100.00
8320;BME280;4197;42.130;24.746;2022-09-01T05:05:23;99202.84;;;19.59;100.00
8320;BME280;4197;42.130;24.746;2022-09-01T05:07:51;99201.44;;;19.74;100.00
8320;BME280;4197;42.130;24.746;2022-09-01T05:10:22;99201.50;;;19.71;100.00
8320;BME280;4197;42.130;24.746;2022-09-01T05:12:55;99206.44;;;19.79;100.00
8320;BME280;4197;42.130;24.746;2022-09-01T05:15:24;99207.31;;;19.96;100.00
8320;BME280;4197;42.130;24.746;2022-09-01T05:17:53;99196.28;;;20.16;100.00
8320;BME280;4197;42.130;24.746;2022-09-01T05:20:24;99194.31;;;20.17;100.00
8320;BME280;4197;42.130;24.746;2022-09-01T05:22:55;99196.66;;;19.98;100.00
8320;BME280;4197;42.130;24.746;2022-09-01T05:25:23;99200.09;;;20.02;100.00
8320;BME280;4197;42.130;24.746;2022-09-01T05:27:53;99194.16;;;20.24;100.00
8320;BME280;4197;42.130;24.746;2022-09-01T05:30:23;99195.94;;;20.34;100.00
8320;BME280;4197;42.130;24.746;2022-09-01T05:32:55;99195.34;;;20.43;100.00
8320;BME280;4197;42.130;24.746;2022-09-01T05:35:24;99190.78;;;20.53;100.00
8320;BME280;4197;42.130;24.746;2022-09-01T05:37:58;99197.38;;;20.59;100.00
8320;BME280;4197;42.130;24.746;2022-09-01T05:40:27;99197.03;;;20.57;100.00
8320;BME280;4197;42.130;24.746;2022-09-01T05:42:55;99197.38;;;20.59;100.00
8320;BME280;4197;42.130;24.746;2022-09-01T05:45:23;99201.28;;;20.78;97.39
8320;BME280;4197;42.130;24.746;2022-09-01T05:47:54;99204.13;;;20.90;96.65
8320;BME280;4197;42.130;24.746;2022-09-01T05:50:24;99210.00;;;20.92;96.29
8320;BME280;4197;42.130;24.746;2022-09-01T05:52:53;99213.78;;;20.99;95.65
8320;BME280;4197;42.130;24.746;2022-09-01T05:55:22;99207.94;;;21.13;94.68
8320;BME280;4197;42.130;24.746;2022-09-01T05:57:54;99212.22;;;21.14;94.99
8320;BME280;4197;42.130;24.746;2022-09-01T06:00:22;99205.84;;;21.17;94.44
8320;BME280;4197;42.130;24.746;2022-09-01T06:02:50;99212.56;;;21.16;95.14
8320;BME280;4197;42.130;24.746;2022-09-01T06:05:21;99213.28;;;21.20;95.73
8320;BME280;4197;42.130;24.746;2022-09-01T06:07:49;99207.66;;;21.24;95.83
8320;BME280;4197;42.130;24.746;2022-09-01T06:10:17;99214.31;;;21.26;95.98
8320;BME280;4197;42.130;24.746;2022-09-01T06:12:45;99219.91;;;21.39;94.95
8320;BME280;4197;42.130;24.746;2022-09-01T06:15:19;99211.47;;;21.46;94.80
8320;BME280;4197;42.130;24.746;2022-09-01T06:17:48;99213.69;;;21.51;94.86
8320;BME280;4197;42.130;24.746;2022-09-01T06:20:17;99204.97;;;21.53;95.83
8320;BME280;4197;42.130;24.746;2022-09-01T06:22:46;99214.59;;;21.61;95.51
8320;BME280;4197;42.130;24.746;2022-09-01T06:25:14;99214.91;;;21.79;94.56
8320;BME280;4197;42.130;24.746;2022-09-01T06:27:44;99206.22;;;21.81;93.17
8320;BME280;4197;42.130;24.746;2022-09-01T06:30:15;99204.34;;;21.91;91.00
8320;BME280;4197;42.130;24.746;2022-09-01T06:32:50;99207.34;;;21.96;91.20
8320;BME280;4197;42.130;24.746;2022-09-01T06:35:19;99202.75;;;22.06;90.85
8320;BME280;4197;42.130;24.746;2022-09-01T06:37:52;99204.88;;;21.86;90.83
8320;BME280;4197;42.130;24.746;2022-09-01T06:40:23;99204.06;;;22.01;89.49
8320;BME280;4197;42.130;24.746;2022-09-01T06:42:51;99208.75;;;22.17;87.93
8320;BME280;4197;42.130;24.746;2022-09-01T06:45:22;99212.53;;;22.23;87.75
8320;BME280;4197;42.130;24.746;2022-09-01T06:47:52;99197.78;;;22.14;89.29
8320;BME280;4197;42.130;24.746;2022-09-01T06:50:26;99206.38;;;22.32;89.06
8320;BME280;4197;42.130;24.746;2022-09-01T06:53:17;99203.28;;;22.43;88.63
8320;BME280;4197;42.130;24.746;2022-09-01T06:56:04;99197.66;;;22.59;87.74
8320;BME280;4197;42.130;24.746;2022-09-01T06:58:35;99204.53;;;22.67;88.22
8320;BME280;4197;42.130;24.746;2022-09-01T07:01:08;99201.88;;;22.77;87.37
8320;BME280;4197;42.130;24.746;2022-09-01T07:03:40;99203.19;;;22.85;86.39
8320;BME280;4197;42.130;24.746;2022-09-01T07:06:10;99208.81;;;22.94;84.92
8320;BME280;4197;42.130;24.746;2022-09-01T07:09:00;99210.06;;;23.06;83.56
8320;BME280;4197;42.130;24.746;2022-09-01T07:11:47;99211.16;;;23.08;82.40
8320;BME280;4197;42.130;24.746;2022-09-01T07:14:36;99201.72;;;23.19;82.97
8320;BME280;4197;42.130;24.746;2022-09-01T07:17:25;99206.22;;;23.38;80.73
8320;BME280;4197;42.130;24.746;2022-09-01T07:19:56;99209.25;;;23.31;81.30
8320;BME280;4197;42.130;24.746;2022-09-01T07:22:45;99200.81;;;23.34;82.15
8320;BME280;4197;42.130;24.746;2022-09-01T07:25:33;99197.97;;;23.60;80.35
8320;BME280;4197;42.130;24.746;2022-09-01T07:28:25;99194.13;;;23.79;79.26
8320;BME280;4197;42.130;24.746;2022-09-01T07:31:17;99190.84;;;23.72;79.95
8320;BME280;4197;42.130;24.746;2022-09-01T07:34:11;99185.41;;;23.81;78.67
8320;BME280;4197;42.130;24.746;2022-09-01T07:37:03;99189.69;;;23.82;78.87
8320;BME280;4197;42.130;24.746;2022-09-01T07:39:51;99190.66;;;23.88;78.68
8320;BME280;4197;42.130;24.746;2022-09-01T07:42:41;99188.84;;;23.94;77.40
8320;BME280;4197;42.130;24.746;2022-09-01T07:45:29;99185.69;;;23.83;77.58
8320;BME280;4197;42.130;24.746;2022-09-01T07:47:57;99174.91;;;23.76;78.32
8320;BME280;4197;42.130;24.746;2022-09-01T07:50:29;99172.50;;;23.87;78.14
8320;BME280;4197;42.130;24.746;2022-09-01T07:53:19;99173.28;;;24.10;78.01
8320;BME280;4197;42.130;24.746;2022-09-01T07:55:49;99173.84;;;24.04;76.04
8320;BME280;4197;42.130;24.746;2022-09-01T07:58:21;99166.19;;;24.09;76.20
8320;BME280;4197;42.130;24.746;2022-09-01T08:00:50;99171.97;;;24.23;74.92
8320;BME280;4197;42.130;24.746;2022-09-01T08:03:22;99170.50;;;24.41;74.05
8320;BME280;4197;42.130;24.746;2022-09-01T08:05:51;99171.06;;;24.58;72.50
8320;BME280;4197;42.130;24.746;2022-09-01T08:08:24;99170.03;;;24.64;72.15
8320;BME280;4197;42.130;24.746;2022-09-01T08:10:55;99167.59;;;24.76;72.34
8320;BME280;4197;42.130;24.746;2022-09-01T08:13:33;99180.03;;;24.71;72.40
8320;BME280;4197;42.130;24.746;2022-09-01T08:16:08;99169.78;;;24.81;71.02
8320;BME280;4197;42.130;24.746;2022-09-01T08:18:45;99161.91;;;24.88;71.32
8320;BME280;4197;42.130;24.746;2022-09-01T08:21:17;99162.53;;;24.83;72.07
8320;BME280;4197;42.130;24.746;2022-09-01T08:23:48;99158.53;;;24.84;71.61
8320;BME280;4197;42.130;24.746;2022-09-01T08:26:18;99161.91;;;24.88;70.61
8320;BME280;4197;42.130;24.746;2022-09-01T08:28:48;99162.06;;;24.94;70.91
8320;BME280;4197;42.130;24.746;2022-09-01T08:31:24;99157.34;;;25.13;71.76
8320;BME280;4197;42.130;24.746;2022-09-01T08:33:56;99164.81;;;25.34;70.40
8320;BME280;4197;42.130;24.746;2022-09-01T08:36:25;99161.88;;;25.29;69.33
8320;BME280;4197;42.130;24.746;2022-09-01T08:38:54;99154.00;;;25.46;69.02
8320;BME280;4197;42.130;24.746;2022-09-01T08:41:31;99145.97;;;25.57;69.95
8320;BME280;4197;42.130;24.746;2022-09-01T08:44:12;99142.09;;;25.82;69.99
8320;BME280;4197;42.130;24.746;2022-09-01T08:46:43;99152.38;;;26.18;66.51
8320;BME280;4197;42.130;24.746;2022-09-01T08:49:17;99135.59;;;26.03;66.72
8320;BME280;4197;42.130;24.746;2022-09-01T08:51:57;99139.94;;;25.95;65.36
8320;BME280;4197;42.130;24.746;2022-09-01T08:54:33;99137.03;;;25.80;66.55
8320;BME280;4197;42.130;24.746;2022-09-01T08:57:06;99132.84;;;25.76;67.50
8320;BME280;4197;42.130;24.746;2022-09-01T08:59:37;99133.94;;;25.88;65.60
8320;BME280;4197;42.130;24.746;2022-09-01T09:02:19;99136.34;;;26.13;64.47
8320;BME280;4197;42.130;24.746;2022-09-01T09:04:58;99121.97;;;26.15;62.41
8320;BME280;4197;42.130;24.746;2022-09-01T09:07:57;99127.25;;;26.46;62.01
8320;BME280;4197;42.130;24.746;2022-09-01T09:10:39;99123.19;;;26.65;61.41
8320;BME280;4197;42.130;24.746;2022-09-01T09:13:20;99119.41;;;26.78;60.65
8320;BME280;4197;42.130;24.746;2022-09-01T09:15:53;99124.59;;;27.09;59.40
8320;BME280;4197;42.130;24.746;2022-09-01T09:18:43;99114.44;;;26.82;58.91
8320;BME280;4197;42.130;24.746;2022-09-01T09:21:26;99120.47;;;27.04;58.94
8320;BME280;4197;42.130;24.746;2022-09-01T09:23:59;99115.44;;;27.18;57.97
8320;BME280;4197;42.130;24.746;2022-09-01T09:26:30;99116.22;;;27.18;56.32
8320;BME280;4197;42.130;24.746;2022-09-01T09:29:14;99112.09;;;27.04;55.75
8320;BME280;4197;42.130;24.746;2022-09-01T09:31:44;99107.25;;;27.14;56.72
8320;BME280;4197;42.130;24.746;2022-09-01T09:34:28;99095.44;;;27.43;55.30
8320;BME280;4197;42.130;24.746;2022-09-01T09:37:01;99110.06;;;27.53;53.73
8320;BME280;4197;42.130;24.746;2022-09-01T09:39:43;99107.16;;;27.47;53.32
8320;BME280;4197;42.130;24.746;2022-09-01T09:42:13;99101.28;;;27.45;54.75
8320;BME280;4197;42.130;24.746;2022-09-01T09:44:43;99098.72;;;27.56;55.38
8320;BME280;4197;42.130;24.746;2022-09-01T09:47:37;99098.34;;;27.78;54.42
8320;BME280;4197;42.130;24.746;2022-09-01T09:50:23;99100.56;;;28.04;52.84
8320;BME280;4197;42.130;24.746;2022-09-01T09:52:54;99089.91;;;27.88;52.37
8320;BME280;4197;42.130;24.746;2022-09-01T09:55:50;99092.91;;;27.84;52.73
8320;BME280;4197;42.130;24.746;2022-09-01T09:58:23;99088.28;;;27.81;53.74
8320;BME280;4197;42.130;24.746;2022-09-01T10:01:01;99080.97;;;28.13;54.19
8320;BME280;4197;42.130;24.746;2022-09-01T10:03:39;99079.22;;;28.16;54.17
8320;BME280;4197;42.130;24.746;2022-09-01T10:06:11;99073.13;;;28.32;52.50
8320;BME280;4197;42.130;24.746;2022-09-01T10:08:42;99073.53;;;28.25;52.70
8320;BME280;4197;42.130;24.746;2022-09-01T10:11:28;99062.94;;;28.44;52.87
8320;BME280;4197;42.130;24.746;2022-09-01T10:14:05;99065.59;;;28.53;52.83
8320;BME280;4197;42.130;24.746;2022-09-01T10:16:39;99059.78;;;28.57;52.91
8320;BME280;4197;42.130;24.746;2022-09-01T10:19:15;99056.38;;;28.67;52.52
8320;BME280;4197;42.130;24.746;2022-09-01T10:21:44;99052.44;;;28.74;52.05
8320;BME280;4197;42.130;24.746;2022-09-01T10:24:18;99050.31;;;28.89;51.52
8320;BME280;4197;42.130;24.746;2022-09-01T10:26:56;99049.22;;;28.81;50.42
8320;BME280;4197;42.130;24.746;2022-09-01T10:29:28;99048.09;;;28.73;51.36
8320;BME280;4197;42.130;24.746;2022-09-01T10:32:09;99042.38;;;28.82;51.63
8320;BME280;4197;42.130;24.746;2022-09-01T10:35:01;99032.75;;;29.04;49.76
8320;BME280;4197;42.130;24.746;2022-09-01T10:37:30;99046.81;;;29.15;50.05
8320;BME280;4197;42.130;24.746;2022-09-01T10:40:17;99055.53;;;29.23;47.85
8320;BME280;4197;42.130;24.746;2022-09-01T10:42:57;99042.56;;;28.79;48.40
8320;BME280;4197;42.130;24.746;2022-09-01T10:45:33;99038.75;;;28.76;49.17
8320;BME280;4197;42.130;24.746;2022-09-01T10:48:23;99037.22;;;28.55;50.11
8320;BME280;4197;42.130;24.746;2022-09-01T10:57:52;99034.81;;;29.29;48.59
8320;BME280;4197;42.130;24.746;2022-09-01T11:00:52;99028.66;;;29.25;47.97
8320;BME280;4197;42.130;24.746;2022-09-01T11:03:58;99021.72;;;28.95;48.60
8320;BME280;4197;42.130;24.746;2022-09-01T11:06:58;99019.16;;;28.71;48.44
8320;BME280;4197;42.130;24.746;2022-09-01T11:10:22;99020.59;;;28.86;48.65
8320;BME280;4197;42.130;24.746;2022-09-01T11:13:27;99017.41;;;28.94;48.21
8320;BME280;4197;42.130;24.746;2022-09-01T11:16:27;99017.47;;;28.99;47.59
8320;BME280;4197;42.130;24.746;2022-09-01T11:19:34;99010.72;;;28.85;48.85
8320;BME280;4197;42.130;24.746;2022-09-01T11:22:21;99006.28;;;28.99;48.27
8320;BME280;4197;42.130;24.746;2022-09-01T11:30:53;99003.97;;;29.18;46.25
8320;BME280;4197;42.130;24.746;2022-09-01T11:33:41;98991.66;;;29.30;45.53
8320;BME280;4197;42.130;24.746;2022-09-01T11:36:19;98991.66;;;29.30;45.35
8320;BME280;4197;42.130;24.746;2022-09-01T11:38:49;98988.34;;;29.58;45.39
8320;BME280;4197;42.130;24.746;2022-09-01T11:41:27;98988.81;;;29.83;44.28
8320;BME280;4197;42.130;24.746;2022-09-01T11:44:01;98992.81;;;29.76;42.81
8320;BME280;4197;42.130;24.746;2022-09-01T11:46:34;98985.53;;;29.58;43.65
8320;BME280;4197;42.130;24.746;2022-09-01T11:49:06;98991.97;;;29.64;43.51
8320;BME280;4197;42.130;24.746;2022-09-01T11:51:44;98980.31;;;29.66;42.92
8320;BME280;4197;42.130;24.746;2022-09-01T11:54:14;98987.81;;;29.60;42.52
8320;BME280;4197;42.130;24.746;2022-09-01T11:56:43;98973.56;;;29.52;43.64
8320;BME280;4197;42.130;24.746;2022-09-01T11:59:11;98978.75;;;29.65;42.85
8320;BME280;4197;42.130;24.746;2022-09-01T12:01:41;98956.34;;;29.59;43.11
8320;BME280;4197;42.130;24.746;2022-09-01T12:04:20;98956.53;;;29.82;43.50
8320;BME280;4197;42.130;24.746;2022-09-01T12:06:52;98958.19;;;30.05;42.97
8320;BME280;4197;42.130;24.746;2022-09-01T12:09:30;98951.00;;;29.93;41.93
8320;BME280;4197;42.130;24.746;2022-09-01T12:11:59;98946.38;;;29.84;42.20
8320;BME280;4197;42.130;24.746;2022-09-01T12:14:27;98937.84;;;29.99;42.51
8320;BME280;4197;42.130;24.746;2022-09-01T12:17:19;98938.53;;;30.37;41.89
8320;BME280;4197;42.130;24.746;2022-09-01T12:19:47;98942.28;;;30.22;40.36
8320;BME280;4197;42.130;24.746;2022-09-01T12:22:17;98942.88;;;30.32;39.97
8320;BME280;4197;42.130;24.746;2022-09-01T12:24:48;98944.34;;;30.28;40.03
8320;BME280;4197;42.130;24.746;2022-09-01T12:27:17;98940.69;;;30.10;40.15
8320;BME280;4197;42.130;24.746;2022-09-01T12:29:45;98934.16;;;29.82;40.62
8320;BME280;4197;42.130;24.746;2022-09-01T12:32:14;98921.25;;;29.90;40.76
8320;BME280;4197;42.130;24.746;2022-09-01T12:34:46;98919.84;;;30.11;41.00
8320;BME280;4197;42.130;24.746;2022-09-01T12:37:20;98920.25;;;30.41;40.89
8320;BME280;4197;42.130;24.746;2022-09-01T12:39:51;98919.28;;;30.61;40.65
8320;BME280;4197;42.130;24.746;2022-09-01T12:42:26;98920.53;;;30.49;39.61
8320;BME280;4197;42.130;24.746;2022-09-01T12:45:08;98929.41;;;30.42;39.19
8320;BME280;4197;42.130;24.746;2022-09-01T12:47:48;98928.31;;;30.22;39.48
8320;BME280;4197;42.130;24.746;2022-09-01T12:50:42;98923.25;;;29.84;40.46
8320;BME280;4197;42.130;24.746;2022-09-01T12:53:20;98927.72;;;30.07;38.97
8320;BME280;4197;42.130;24.746;2022-09-01T12:56:03;98919.34;;;30.07;39.03
8320;BME280;4197;42.130;24.746;2022-09-01T12:58:32;98926.97;;;30.12;38.57
8320;BME280;4197;42.130;24.746;2022-09-01T13:01:03;98918.16;;;30.25;38.32
8320;BME280;4197;42.130;24.746;2022-09-01T13:04:06;98921.63;;;30.14;38.54
8320;BME280;4197;42.130;24.746;2022-09-01T13:06:39;98919.50;;;30.41;38.83
8320;BME280;4197;42.130;24.746;2022-09-01T13:09:07;98923.34;;;30.49;38.29
8320;BME280;4197;42.130;24.746;2022-09-01T13:11:36;98921.34;;;30.66;37.54
8320;BME280;4197;42.130;24.746;2022-09-01T13:14:24;98916.44;;;30.39;37.51
8320;BME280;4197;42.130;24.746;2022-09-01T13:16:53;98913.91;;;30.47;37.52
8320;BME280;4197;42.130;24.746;2022-09-01T13:19:21;98913.19;;;30.52;37.37
8320;BME280;4197;42.130;24.746;2022-09-01T13:21:57;98909.13;;;30.58;37.70
8320;BME280;4197;42.130;24.746;2022-09-01T13:24:25;98914.44;;;30.56;36.22
8320;BME280;4197;42.130;24.746;2022-09-01T13:26:57;98914.19;;;30.43;36.54
8320;BME280;4197;42.130;24.746;2022-09-01T13:29:45;98894.97;;;30.19;37.23
8320;BME280;4197;42.130;24.746;2022-09-01T13:32:14;98895.34;;;30.38;37.87
8320;BME280;4197;42.130;24.746;2022-09-01T13:34:45;98901.94;;;30.35;37.74
8320;BME280;4197;42.130;24.746;2022-09-01T13:37:18;98896.09;;;30.38;37.97
8320;BME280;4197;42.130;24.746;2022-09-01T13:39:47;98901.44;;;30.42;37.98
8320;BME280;4197;42.130;24.746;2022-09-01T13:42:16;98898.13;;;30.38;38.14
8320;BME280;4197;42.130;24.746;2022-09-01T13:44:45;98900.94;;;30.38;37.86
8320;BME280;4197;42.130;24.746;2022-09-01T13:47:20;98899.63;;;30.33;37.47
8320;BME280;4197;42.130;24.746;2022-09-01T13:49:57;98890.19;;;30.25;38.23
8320;BME280;4197;42.130;24.746;2022-09-01T13:52:49;98896.22;;;30.18;37.60
8320;BME280;4197;42.130;24.746;2022-09-01T13:55:23;98894.22;;;30.18;37.76
8320;BME280;4197;42.130;24.746;2022-09-01T13:57:52;98892.44;;;30.15;38.34
8320;BME280;4197;42.130;24.746;2022-09-01T14:00:23;98888.56;;;30.01;37.71